»·PEaware :: N234CL KTUS-E24

N234CL :: KTUS-E24

FLIGHT INFORMATION

Flight Status: Arrived
Operator: Privately registered:
United States
More flights under this callsign
Pilot: Christian L. (6360)
Aircraft: BEECH AIRCRAFT SUPER KING AIR 350
(B350)
More flights by this aircraft type
Origin: KTUS Tucson Intl
United States
Destination: E24 Whiteriver
United States
More flights between these airports :: More routes between these airports
Route:
File this flight plan on PilotEdge
Remarks:
Altitude:
(Current/Filed)
17,500ft
Speed:
(Current/Filed)
0kts
Departed: 10-Jun-23 11:41 AM
Arrived: 10-Jun-23 12:12 PM
Distance/Time
Traveled:
113nm/0:31
Distance/Time
To Go:
Arrived

Flight Plot

Page will automatically refresh every two minutes.

Flight plan parsing failed; only flown route is shown


Map Options




Map Legend


Flown Route
Filed Route
Departure Airport
Arrival Airport
Navaid (VOR, NDB)
Fix

Horizontal Profiles

Position Reports

Time Latitude Longitude Heading Altitude Ground
Speed
10-Jun-23 11:33 32.118876 -110.934654 45 2611ft 0kts
10-Jun-23 11:34 32.118876 -110.934654 45 2611ft 0kts
10-Jun-23 11:35 32.118893 -110.934642 25 2611ft 1kts
10-Jun-23 11:36 32.117594 -110.937322 296 2593ft 13kts
10-Jun-23 11:37 32.118947 -110.940968 186 2592ft 10kts
10-Jun-23 11:38 32.118725 -110.940976 180 2593ft 0kts
10-Jun-23 11:39 32.117458 -110.940844 151 2591ft 16kts
10-Jun-23 11:40 32.106677 -110.928479 136 2780ft 134kts
10-Jun-23 11:41 32.084087 -110.890831 88 4276ft 133kts
10-Jun-23 11:42 32.104396 -110.853728 43 5120ft 153kts
10-Jun-23 11:43 32.120694 -110.800805 91 6220ft 189kts
10-Jun-23 11:44 32.122495 -110.738647 92 8047ft 190kts
10-Jun-23 11:45 32.124246 -110.675717 93 9867ft 194kts
10-Jun-23 11:46 32.163001 -110.653701 351 12054ft 190kts
10-Jun-23 11:47 32.218636 -110.665405 327 13470ft 241kts
10-Jun-23 11:48 32.284958 -110.711624 325 13470ft 301kts
10-Jun-23 11:49 32.358977 -110.764769 325 13465ft 316kts
10-Jun-23 11:50 32.440922 -110.764019 34 13444ft 328kts
10-Jun-23 11:51 32.522749 -110.715887 27 13436ft 329kts
10-Jun-23 11:52 32.605020 -110.669521 26 13424ft 325kts
10-Jun-23 11:53 32.686613 -110.623847 25 13415ft 324kts
10-Jun-23 11:54 32.768640 -110.577877 25 13399ft 326kts
10-Jun-23 11:55 32.850650 -110.531869 25 13380ft 326kts
10-Jun-23 11:56 32.932344 -110.485944 26 13369ft 324kts
10-Jun-23 11:57 33.013876 -110.439988 26 13349ft 324kts
10-Jun-23 11:58 33.095726 -110.393767 25 13351ft 325kts
10-Jun-23 11:59 33.177428 -110.347447 25 13350ft 324kts
10-Jun-23 12:00 33.258752 -110.301286 25 13354ft 324kts
10-Jun-23 12:01 33.340115 -110.255060 25 13361ft 323kts
10-Jun-23 12:02 33.418885 -110.210204 25 11788ft 303kts
10-Jun-23 12:03 33.493585 -110.167460 25 9425ft 293kts
10-Jun-23 12:04 33.566027 -110.125040 44 7123ft 280kts
10-Jun-23 12:05 33.597905 -110.063699 15 7087ft 178kts
10-Jun-23 12:06 33.641649 -110.049152 17 7087ft 157kts
10-Jun-23 12:07 33.683337 -110.033495 16 7099ft 157kts
10-Jun-23 12:08 33.726243 -110.017351 17 7103ft 164kts
10-Jun-23 12:09 33.770608 -110.007646 7 7005ft 173kts
10-Jun-23 12:10 33.808619 -109.987810 28 5034ft 114kts
10-Jun-23 12:11 33.818368 -109.981917 237 5024ft 7kts
10-Jun-23 12:12 33.817195 -109.982770 209 5029ft 0kts
10-Jun-23 12:13 33.817195 -109.982770 209 5029ft 0kts
10-Jun-23 12:14 33.817195 -109.982770 209 5029ft 0kts
10-Jun-23 12:15 33.817195 -109.982770 209 5029ft 0kts
10-Jun-23 12:16 33.817195 -109.982770 209 5029ft 0kts
10-Jun-23 12:17 33.817195 -109.982770 209 5029ft 0kts
10-Jun-23 12:18 33.817195 -109.982770 209 5029ft 0kts
10-Jun-23 12:19 33.817195 -109.982770 209 5029ft 0kts
10-Jun-23 12:20 33.817195 -109.982770 209 5029ft 0kts
10-Jun-23 12:21 33.817195 -109.982770 209 5029ft 0kts
10-Jun-23 12:22 33.817195 -109.982770 209 5029ft 0kts
10-Jun-23 12:23 33.817195 -109.982770 209 5029ft 0kts
10-Jun-23 12:24 33.817195 -109.982770 209 5031ft 0kts
10-Jun-23 12:25 33.818400 -109.981919 58 5024ft 0kts

Navigation Log

Ident Type
Flight plan parsing failed, navigation log unavailable